Terminal Aerodrome Forecast
Issued by NWS Omaha/Valley, NE

Home | Current Version | Previous Version | Text Only | Print | Product List | Glossary Off
Versions: 1 2 3 4 5 6 7 8 9 10 11 12 13 14 15 16 17 18 19 20 21 22 23 24 25 26 27 28 29 30 31 32 33 34 35 36

000
FTUS43 KOAX 231144
TAFOFK
TAF
KOFK 231144Z 2312/2412 11005KT P6SM SCT050 OVC070
     FM231400 14010KT P6SM OVC025
     FM240000 14009KT P6SM OVC008 PROB30 2400/2406 5SM -SHRA OVC004
     FM240600 14007KT 4SM -RA OVC007=

USA.gov is the U.S. government's official web portal to all federal, state and local government web resources and services.